createdAt,value
2022-08-19T00:00:01.645Z,20.70
2022-08-19T00:03:09.917Z,20.60
2022-08-19T00:06:15.066Z,20.60
2022-08-19T00:09:28.474Z,20.60
2022-08-19T00:12:33.540Z,20.50
2022-08-19T00:15:45.785Z,20.50
2022-08-19T00:18:51.437Z,20.50
2022-08-19T00:21:57.285Z,20.40
2022-08-19T00:25:04.912Z,20.40
2022-08-19T00:28:09.898Z,20.40
2022-08-19T00:31:14.992Z,20.30
2022-08-19T00:34:20.104Z,20.30
2022-08-19T00:37:27.005Z,20.30
2022-08-19T00:40:34.564Z,20.20
2022-08-19T00:43:39.866Z,20.20
2022-08-19T00:46:55.644Z,20.10
2022-08-19T00:50:03.874Z,20.10
2022-08-19T00:53:09.978Z,20.10
2022-08-19T00:56:19.799Z,20.00
2022-08-19T00:59:56.168Z,20.00
2022-08-19T01:02:50.045Z,20.00
2022-08-19T01:05:57.586Z,19.90
2022-08-19T01:09:03.584Z,19.90
2022-08-19T01:12:11.969Z,19.90
2022-08-19T01:15:22.172Z,19.80
2022-08-19T01:18:28.855Z,19.80
2022-08-19T01:21:37.542Z,19.80
2022-08-19T01:24:46.741Z,19.70
2022-08-19T01:27:56.639Z,19.70
2022-08-19T01:31:08.117Z,19.70
2022-08-19T01:34:13.392Z,19.70
2022-08-19T01:37:24.884Z,19.60
2022-08-19T01:40:36.489Z,19.60
2022-08-19T01:44:13.457Z,19.60
2022-08-19T01:47:07.861Z,19.60
2022-08-19T01:50:14.751Z,19.60
2022-08-19T01:53:19.954Z,19.50
2022-08-19T01:56:28.006Z,19.50
2022-08-19T01:59:37.522Z,19.40
2022-08-19T02:02:51.339Z,19.40
2022-08-19T02:06:01.830Z,19.40
2022-08-19T02:09:09.127Z,19.40
2022-08-19T02:12:17.343Z,19.40
2022-08-19T02:15:23.744Z,19.30
2022-08-19T02:18:29.138Z,19.30
2022-08-19T02:21:34.977Z,19.30
2022-08-19T02:24:40.033Z,19.30
2022-08-19T02:27:47.609Z,19.30
2022-08-19T02:30:54.937Z,19.20
2022-08-19T02:34:00.374Z,19.20
2022-08-19T02:37:05.355Z,19.20
2022-08-19T02:40:12.326Z,19.20
2022-08-19T02:43:21.188Z,19.10
2022-08-19T02:46:28.695Z,19.10
2022-08-19T02:49:35.413Z,19.10
2022-08-19T02:52:40.518Z,19.10
2022-08-19T02:55:49.727Z,19.10
2022-08-19T02:58:57.751Z,19.00
2022-08-19T03:02:02.753Z,19.00
2022-08-19T03:05:09.738Z,19.00
2022-08-19T03:08:15.998Z,19.00
2022-08-19T03:11:22.957Z,19.00
2022-08-19T03:14:30.975Z,18.90
2022-08-19T03:17:35.901Z,18.90
2022-08-19T03:20:45.732Z,18.90
2022-08-19T03:23:51.250Z,18.90
2022-08-19T03:26:59.721Z,18.80
2022-08-19T03:30:08.273Z,18.80
2022-08-19T03:33:18.171Z,18.80
2022-08-19T03:36:31.137Z,18.80
2022-08-19T03:39:36.785Z,18.70
2022-08-19T03:42:48.663Z,18.70
2022-08-19T03:46:07.667Z,18.70
2022-08-19T03:49:14.126Z,18.60
2022-08-19T03:52:19.586Z,18.60
2022-08-19T03:55:24.666Z,18.60
2022-08-19T03:58:30.989Z,18.60
2022-08-19T04:01:39.277Z,18.60
2022-08-19T04:04:46.093Z,18.50
2022-08-19T04:07:51.028Z,18.50
2022-08-19T04:10:55.933Z,18.50
2022-08-19T04:14:01.321Z,18.50
2022-08-19T04:17:12.161Z,18.40
2022-08-19T04:20:17.158Z,18.40
2022-08-19T04:23:22.342Z,18.40
2022-08-19T04:26:33.084Z,18.40
2022-08-19T04:29:40.515Z,18.30
2022-08-19T04:32:48.101Z,18.30
2022-08-19T04:35:55.619Z,18.30
2022-08-19T04:39:03.412Z,18.20
2022-08-19T04:42:20.975Z,18.20
2022-08-19T04:45:43.482Z,18.20
2022-08-19T04:48:51.583Z,18.10
2022-08-19T04:51:57.767Z,18.10
2022-08-19T04:55:02.783Z,18.10
2022-08-19T04:58:07.897Z,18.10
2022-08-19T05:01:14.988Z,18.10
2022-08-19T05:04:23.618Z,18.10
2022-08-19T05:07:28.685Z,18.00
2022-08-19T05:10:34.101Z,18.00
2022-08-19T05:13:39.239Z,18.00
2022-08-19T05:16:46.911Z,18.00
2022-08-19T05:20:06.942Z,18.00
2022-08-19T05:23:22.096Z,18.00
2022-08-19T05:26:28.614Z,18.00
2022-08-19T05:29:36.484Z,17.90
2022-08-19T05:32:41.855Z,17.90
2022-08-19T05:35:49.452Z,17.90
2022-08-19T05:38:54.424Z,17.90
2022-08-19T05:42:01.634Z,17.90
2022-08-19T05:45:07.586Z,17.90
2022-08-19T05:48:13.988Z,17.90
2022-08-19T05:51:21.583Z,17.90
2022-08-19T05:54:28.097Z,17.90
2022-08-19T05:57:33.462Z,17.90
2022-08-19T06:00:38.566Z,17.90
2022-08-19T06:03:43.698Z,17.90
2022-08-19T06:06:52.896Z,17.90
2022-08-19T06:10:00.682Z,18.00
2022-08-19T06:13:06.768Z,18.00
2022-08-19T06:16:11.710Z,18.00
2022-08-19T06:19:18.599Z,18.00
2022-08-19T06:22:26.555Z,18.10
2022-08-19T06:25:31.536Z,18.20
2022-08-19T06:28:36.646Z,18.20
2022-08-19T06:31:46.246Z,18.30
2022-08-19T06:34:51.194Z,18.40
2022-08-19T06:37:58.859Z,18.50
2022-08-19T06:41:08.205Z,18.60
2022-08-19T06:44:13.398Z,18.70
2022-08-19T06:47:23.678Z,18.80
2022-08-19T06:50:33.485Z,19.00
2022-08-19T06:53:48.146Z,19.10
2022-08-19T06:56:53.761Z,19.20
2022-08-19T06:59:58.742Z,19.40
2022-08-19T07:03:07.696Z,19.60
2022-08-19T07:06:32.508Z,19.80
2022-08-19T07:09:54.419Z,20.00
2022-08-19T07:13:05.038Z,20.20
2022-08-19T07:16:11.015Z,20.40
2022-08-19T07:19:18.993Z,20.50
2022-08-19T07:22:24.615Z,20.80
2022-08-19T07:25:33.376Z,21.00
2022-08-19T07:28:40.198Z,21.20
2022-08-19T07:31:57.273Z,21.40
2022-08-19T07:35:04.417Z,21.60
2022-08-19T07:38:09.544Z,21.90
2022-08-19T07:41:19.351Z,22.20
2022-08-19T07:44:24.811Z,22.30
2022-08-19T07:47:48.288Z,22.60
2022-08-19T07:50:56.401Z,22.80
2022-08-19T07:54:01.376Z,23.00
2022-08-19T07:57:09.383Z,23.20
2022-08-19T08:00:15.361Z,23.40
2022-08-19T08:03:43.462Z,23.60
2022-08-19T08:07:00.991Z,23.70
2022-08-19T08:10:20.843Z,23.90
2022-08-19T08:13:29.089Z,24.00
2022-08-19T08:16:35.010Z,24.20
2022-08-19T08:19:42.080Z,24.30
2022-08-19T08:23:00.681Z,24.50
2022-08-19T08:26:05.794Z,24.60
2022-08-19T08:29:13.658Z,24.80
2022-08-19T08:32:19.381Z,25.00
2022-08-19T08:35:26.722Z,25.10
2022-08-19T08:38:36.962Z,25.30
2022-08-19T08:41:50.334Z,25.40
2022-08-19T08:45:03.379Z,25.50
2022-08-19T08:48:23.898Z,25.70
2022-08-19T08:51:35.593Z,25.80
2022-08-19T08:54:49.158Z,26.00
2022-08-19T08:58:06.478Z,26.10
2022-08-19T09:01:15.016Z,26.30
2022-08-19T09:04:20.522Z,26.40
2022-08-19T09:07:42.815Z,26.60
2022-08-19T09:10:54.984Z,26.70
2022-08-19T09:14:29.136Z,26.80
2022-08-19T09:17:40.354Z,27.00
2022-08-19T09:20:45.433Z,27.20
2022-08-19T09:23:51.102Z,27.30
2022-08-19T09:26:57.061Z,27.40
2022-08-19T09:30:02.875Z,27.50
2022-08-19T09:33:10.749Z,27.60
2022-08-19T09:36:31.193Z,27.70
2022-08-19T09:39:39.616Z,27.90
2022-08-19T09:42:50.050Z,28.00
2022-08-19T09:45:56.962Z,28.20
2022-08-19T09:49:06.889Z,28.30
2022-08-19T09:52:13.631Z,28.40
2022-08-19T09:55:19.476Z,28.60
2022-08-19T09:58:28.566Z,28.70
2022-08-19T10:01:35.214Z,28.90
2022-08-19T10:04:55.256Z,29.10
2022-08-19T10:08:02.813Z,29.20
2022-08-19T10:11:27.393Z,29.40
2022-08-19T10:14:35.606Z,29.60
2022-08-19T10:17:40.542Z,29.70
2022-08-19T10:20:55.990Z,29.80
2022-08-19T10:24:04.798Z,29.90
2022-08-19T10:27:10.744Z,29.90
2022-08-19T10:30:17.223Z,29.90
2022-08-19T10:33:38.823Z,29.90
2022-08-19T10:36:56.480Z,29.90
2022-08-19T10:40:06.935Z,30.00
2022-08-19T10:43:12.317Z,30.00
2022-08-19T10:46:19.966Z,30.10
2022-08-19T10:49:25.203Z,30.20
2022-08-19T10:52:38.972Z,30.20
2022-08-19T10:55:56.609Z,30.40
2022-08-19T10:59:04.203Z,30.50
2022-08-19T11:02:13.135Z,30.60
2022-08-19T11:05:18.775Z,30.70
2022-08-19T11:08:27.993Z,30.90
2022-08-19T11:11:33.198Z,31.00
2022-08-19T11:14:43.650Z,31.10
2022-08-19T11:17:48.691Z,31.30
2022-08-19T11:20:53.739Z,31.40
2022-08-19T11:24:03.232Z,31.50
2022-08-19T11:27:11.855Z,31.60
2022-08-19T11:30:17.702Z,31.80
2022-08-19T11:33:22.745Z,31.90
2022-08-19T11:36:27.709Z,32.00
2022-08-19T11:39:37.929Z,32.10
2022-08-19T11:42:58.497Z,32.10
2022-08-19T11:46:04.223Z,32.20
2022-08-19T11:49:14.009Z,32.30
2022-08-19T11:52:19.210Z,32.40
2022-08-19T11:55:27.502Z,32.50
2022-08-19T11:58:32.881Z,32.50
2022-08-19T12:01:38.583Z,32.50
2022-08-19T12:04:43.755Z,32.50
2022-08-19T12:07:48.796Z,32.60
2022-08-19T12:10:59.226Z,32.60
2022-08-19T12:14:04.456Z,32.60
2022-08-19T12:17:10.192Z,32.60
2022-08-19T12:20:18.103Z,32.70
2022-08-19T12:23:23.294Z,32.60
2022-08-19T12:26:32.578Z,32.60
2022-08-19T12:29:37.745Z,32.50
2022-08-19T12:32:43.170Z,32.40
2022-08-19T12:35:49.399Z,32.30
2022-08-19T12:38:55.846Z,32.10
2022-08-19T12:42:03.397Z,32.00
2022-08-19T12:45:09.177Z,31.80
2022-08-19T12:48:33.368Z,31.70
2022-08-19T12:51:39.289Z,31.50
2022-08-19T12:54:44.267Z,31.40
2022-08-19T12:57:51.873Z,31.30
2022-08-19T13:00:57.240Z,31.20
2022-08-19T13:04:02.790Z,31.20
2022-08-19T13:07:07.984Z,31.10
2022-08-19T13:10:16.393Z,31.10
2022-08-19T13:13:27.093Z,31.10
2022-08-19T13:16:32.523Z,31.10
2022-08-19T13:19:41.097Z,31.10
2022-08-19T13:22:46.302Z,31.20
2022-08-19T13:26:00.059Z,31.20
2022-08-19T13:29:19.907Z,31.30
2022-08-19T13:32:37.358Z,31.30
2022-08-19T13:35:42.996Z,31.40
2022-08-19T13:38:47.918Z,31.40
2022-08-19T13:41:52.993Z,31.50
2022-08-19T13:45:00.583Z,31.60
2022-08-19T13:48:09.393Z,31.60
2022-08-19T13:51:14.354Z,31.60
2022-08-19T13:54:19.287Z,31.70
2022-08-19T13:57:24.301Z,31.70
2022-08-19T14:00:34.226Z,31.80
2022-08-19T14:03:40.317Z,31.80
2022-08-19T14:06:45.234Z,31.80
2022-08-19T14:09:50.194Z,31.80
2022-08-19T14:12:59.228Z,31.80
2022-08-19T14:16:11.394Z,31.80
2022-08-19T14:19:16.558Z,31.80
2022-08-19T14:22:22.497Z,31.80
2022-08-19T14:25:31.999Z,31.70
2022-08-19T14:28:37.298Z,31.70
2022-08-19T14:31:45.087Z,31.60
2022-08-19T14:34:50.041Z,31.50
2022-08-19T14:37:56.436Z,31.50
2022-08-19T14:41:11.482Z,31.40
2022-08-19T14:44:16.466Z,31.40
2022-08-19T14:47:24.095Z,31.30
2022-08-19T14:50:29.059Z,31.30
2022-08-19T14:53:34.442Z,31.20
2022-08-19T14:56:39.387Z,31.10
2022-08-19T14:59:44.674Z,31.10
2022-08-19T15:02:52.251Z,31.00
2022-08-19T15:05:57.537Z,30.90
2022-08-19T15:09:04.597Z,30.90
2022-08-19T15:12:11.366Z,30.80
2022-08-19T15:15:19.103Z,30.80
2022-08-19T15:18:26.766Z,30.70
2022-08-19T15:21:33.379Z,30.70
2022-08-19T15:24:47.874Z,30.60
2022-08-19T15:27:53.927Z,30.60
2022-08-19T15:30:59.032Z,30.60
2022-08-19T15:34:07.649Z,30.60
2022-08-19T15:37:15.703Z,30.60
2022-08-19T15:40:21.416Z,30.60
2022-08-19T15:43:26.456Z,30.50
2022-08-19T15:46:34.105Z,30.50
2022-08-19T15:49:41.674Z,30.40
2022-08-19T15:52:50.431Z,30.40
2022-08-19T15:55:55.410Z,30.30
2022-08-19T15:59:12.853Z,30.30
2022-08-19T16:02:32.241Z,30.20
2022-08-19T16:05:52.507Z,30.20
2022-08-19T16:08:58.833Z,30.10
2022-08-19T16:12:05.929Z,30.00
2022-08-19T16:15:13.565Z,29.90
2022-08-19T16:18:18.579Z,29.90
2022-08-19T16:21:32.809Z,29.70
2022-08-19T16:24:37.759Z,29.60
2022-08-19T16:27:46.568Z,29.50
2022-08-19T16:31:08.531Z,29.40
2022-08-19T16:34:14.413Z,29.30
2022-08-19T16:37:23.286Z,29.20
2022-08-19T16:40:28.604Z,29.10
2022-08-19T16:43:33.837Z,29.00
2022-08-19T16:46:41.647Z,28.80
2022-08-19T16:49:53.526Z,28.70
2022-08-19T16:53:03.401Z,28.60
2022-08-19T16:56:09.664Z,28.50
2022-08-19T16:59:15.381Z,28.40
2022-08-19T17:02:22.074Z,28.30
2022-08-19T17:05:27.562Z,28.20
2022-08-19T17:08:35.679Z,28.10
2022-08-19T17:11:42.510Z,28.00
2022-08-19T17:14:48.111Z,27.90
2022-08-19T17:17:53.093Z,27.80
2022-08-19T17:20:58.105Z,27.70
2022-08-19T17:24:08.786Z,27.60
2022-08-19T17:27:13.785Z,27.50
2022-08-19T17:30:18.797Z,27.40
2022-08-19T17:33:24.160Z,27.40
2022-08-19T17:36:31.421Z,27.30
2022-08-19T17:39:39.840Z,27.20
2022-08-19T17:42:45.185Z,27.20
2022-08-19T17:45:50.454Z,27.10
2022-08-19T17:48:57.298Z,27.00
2022-08-19T17:52:02.377Z,27.00
2022-08-19T17:55:11.320Z,26.90
2022-08-19T17:58:16.729Z,26.80
2022-08-19T18:01:24.751Z,26.80
2022-08-19T18:04:31.710Z,26.70
2022-08-19T18:07:36.673Z,26.60
2022-08-19T18:10:44.169Z,26.60
2022-08-19T18:13:50.184Z,26.50
2022-08-19T18:16:55.729Z,26.40
2022-08-19T18:20:00.771Z,26.40
2022-08-19T18:23:44.814Z,26.40
2022-08-19T18:26:33.874Z,26.30
2022-08-19T18:29:40.258Z,26.20
2022-08-19T18:32:49.749Z,26.20
2022-08-19T18:35:55.008Z,26.20
2022-08-19T18:39:12.674Z,26.10
2022-08-19T18:42:33.820Z,26.10
2022-08-19T18:45:53.624Z,26.00
2022-08-19T18:49:08.091Z,26.00
2022-08-19T18:52:13.064Z,25.90
2022-08-19T18:55:18.702Z,25.90
2022-08-19T18:58:28.297Z,25.80
2022-08-19T19:01:36.725Z,25.80
2022-08-19T19:04:41.751Z,25.70
2022-08-19T19:07:46.920Z,25.70
2022-08-19T19:10:51.873Z,25.60
2022-08-19T19:14:00.401Z,25.60
2022-08-19T19:17:09.354Z,25.50
2022-08-19T19:20:14.310Z,25.50
2022-08-19T19:23:20.616Z,25.40
2022-08-19T19:26:26.018Z,25.30
2022-08-19T19:29:35.730Z,25.30
2022-08-19T19:32:41.154Z,25.30
2022-08-19T19:35:47.175Z,25.20
2022-08-19T19:38:52.447Z,25.20
2022-08-19T19:41:57.454Z,25.10
2022-08-19T19:45:05.302Z,25.10
2022-08-19T19:48:13.766Z,25.00
2022-08-19T19:51:19.904Z,25.00
2022-08-19T19:54:25.113Z,24.90
2022-08-19T19:57:30.454Z,24.80
2022-08-19T20:00:38.580Z,24.80
2022-08-19T20:03:44.355Z,24.80
2022-08-19T20:06:49.745Z,24.70
2022-08-19T20:09:59.772Z,24.70
2022-08-19T20:13:05.930Z,24.60
2022-08-19T20:16:13.889Z,24.60
2022-08-19T20:19:21.043Z,24.50
2022-08-19T20:22:26.079Z,24.50
2022-08-19T20:25:32.270Z,24.50
2022-08-19T20:28:37.299Z,24.50
2022-08-19T20:31:59.155Z,24.40
2022-08-19T20:35:06.248Z,24.40
2022-08-19T20:38:11.351Z,24.30
2022-08-19T20:41:17.513Z,24.30
2022-08-19T20:44:23.305Z,24.30
2022-08-19T20:47:32.701Z,24.30
2022-08-19T20:50:39.099Z,24.20
2022-08-19T20:53:45.074Z,24.30
2022-08-19T20:56:51.214Z,24.20
2022-08-19T20:59:56.166Z,24.20
2022-08-19T21:03:03.933Z,24.20
2022-08-19T21:06:09.538Z,24.10
2022-08-19T21:09:17.723Z,24.10
2022-08-19T21:12:22.828Z,24.10
2022-08-19T21:15:27.974Z,24.10
2022-08-19T21:18:35.630Z,24.10
2022-08-19T21:21:40.643Z,24.00
2022-08-19T21:24:45.860Z,24.00
2022-08-19T21:27:50.859Z,24.00
2022-08-19T21:30:56.568Z,24.00
2022-08-19T21:34:06.806Z,23.90
2022-08-19T21:37:13.953Z,23.90
2022-08-19T21:40:30.127Z,23.90
2022-08-19T21:43:35.431Z,23.90
2022-08-19T21:46:40.430Z,23.80
2022-08-19T21:49:48.010Z,23.80
2022-08-19T21:52:54.401Z,23.80
2022-08-19T21:55:59.353Z,23.80
2022-08-19T21:59:04.287Z,23.70
2022-08-19T22:02:19.534Z,23.70
2022-08-19T22:05:28.786Z,23.70
2022-08-19T22:08:34.053Z,23.70
2022-08-19T22:11:39.769Z,23.60
2022-08-19T22:14:44.690Z,23.50
2022-08-19T22:17:50.909Z,23.50
2022-08-19T22:20:58.441Z,23.50
2022-08-19T22:24:04.086Z,23.40
2022-08-19T22:27:09.190Z,23.40
2022-08-19T22:30:17.349Z,23.30
2022-08-19T22:33:23.955Z,23.30
2022-08-19T22:36:31.697Z,23.20
2022-08-19T22:39:37.855Z,23.20
2022-08-19T22:42:43.094Z,23.10
2022-08-19T22:45:49.486Z,23.10
2022-08-19T22:48:56.678Z,23.00
2022-08-19T22:52:18.524Z,23.00
2022-08-19T22:55:23.466Z,22.90
2022-08-19T22:58:29.761Z,22.90
2022-08-19T23:01:35.971Z,22.80
2022-08-19T23:04:40.950Z,22.80
2022-08-19T23:07:52.231Z,22.80
2022-08-19T23:10:57.818Z,22.70
2022-08-19T23:14:03.745Z,22.70
2022-08-19T23:17:10.442Z,22.70
2022-08-19T23:20:17.779Z,22.70
2022-08-19T23:23:26.039Z,22.60
2022-08-19T23:26:35.585Z,22.60
2022-08-19T23:29:53.442Z,22.60
2022-08-19T23:32:59.501Z,22.60
2022-08-19T23:36:08.482Z,22.50
2022-08-19T23:39:16.092Z,22.50
2022-08-19T23:42:21.453Z,22.50
2022-08-19T23:45:28.265Z,22.50
2022-08-19T23:48:38.575Z,22.50
2022-08-19T23:51:43.752Z,22.40
2022-08-19T23:54:51.253Z,22.40
2022-08-19T23:57:56.865Z,22.40
